<?xml version="1.0" encoding="UTF-8" standalone="no" ?>
<gpx xmlns="http://www.topografix.com/GPX/1/1" xmlns:xsi="http://www.w3.org/2001/XMLSchema-instance" xsi:schemaLocation="http://www.topografix.com/GPX/1/1 http://www.topografix.com/GPX/1/1/gpx.xsd" version="1.1" creator="VisuGPX - https://www.visugpx.com">
  <metadata>
    <name>2023-03-04 Vignolo alture</name>
  </metadata>
  <trk>
    <name><![CDATA[2023-03-04 17:36:08]]></name>
    <trkseg>
      <trkpt lat="44.35551" lon="7.47001">
        <ele>662.49</ele>
        <time>2023-03-04T14:08:21Z</time>
      </trkpt>
      <trkpt lat="44.3554" lon="7.46998">
        <ele>671.62</ele>
        <time>2023-03-04T14:08:41Z</time>
      </trkpt>
      <trkpt lat="44.35535" lon="7.46994">
        <ele>674.98</ele>
        <time>2023-03-04T14:08:58Z</time>
      </trkpt>
      <trkpt lat="44.35529" lon="7.46992">
        <ele>675.46</ele>
        <time>2023-03-04T14:09:09Z</time>
      </trkpt>
      <trkpt lat="44.35513" lon="7.46985">
        <ele>678.35</ele>
        <time>2023-03-04T14:09:25Z</time>
      </trkpt>
      <trkpt lat="44.35506" lon="7.46976">
        <ele>682.19</ele>
        <time>2023-03-04T14:09:34Z</time>
      </trkpt>
      <trkpt lat="44.35494" lon="7.4696">
        <ele>684.12</ele>
        <time>2023-03-04T14:09:49Z</time>
      </trkpt>
      <trkpt lat="44.35484" lon="7.46941">
        <ele>682.67</ele>
        <time>2023-03-04T14:10:07Z</time>
      </trkpt>
      <trkpt lat="44.35472" lon="7.46915">
        <ele>685.08</ele>
        <time>2023-03-04T14:10:25Z</time>
      </trkpt>
      <trkpt lat="44.35467" lon="7.46896">
        <ele>686.04</ele>
        <time>2023-03-04T14:10:37Z</time>
      </trkpt>
      <trkpt lat="44.35465" lon="7.46892">
        <ele>685.56</ele>
        <time>2023-03-04T14:10:40Z</time>
      </trkpt>
      <trkpt lat="44.35455" lon="7.46877">
        <ele>685.08</ele>
        <time>2023-03-04T14:10:53Z</time>
      </trkpt>
      <trkpt lat="44.35439" lon="7.46857">
        <ele>685.08</ele>
        <time>2023-03-04T14:11:10Z</time>
      </trkpt>
      <trkpt lat="44.35434" lon="7.46853">
        <ele>685.56</ele>
        <time>2023-03-04T14:11:15Z</time>
      </trkpt>
      <trkpt lat="44.35418" lon="7.46829">
        <ele>687</ele>
        <time>2023-03-04T14:11:34Z</time>
      </trkpt>
      <trkpt lat="44.35405" lon="7.46825">
        <ele>689.88</ele>
        <time>2023-03-04T14:11:50Z</time>
      </trkpt>
      <trkpt lat="44.35387" lon="7.46824">
        <ele>693.73</ele>
        <time>2023-03-04T14:12:03Z</time>
      </trkpt>
      <trkpt lat="44.35371" lon="7.46805">
        <ele>696.61</ele>
        <time>2023-03-04T14:12:17Z</time>
      </trkpt>
      <trkpt lat="44.35373" lon="7.46775">
        <ele>698.05</ele>
        <time>2023-03-04T14:12:36Z</time>
      </trkpt>
      <trkpt lat="44.35371" lon="7.46756">
        <ele>699.5</ele>
        <time>2023-03-04T14:12:48Z</time>
      </trkpt>
      <trkpt lat="44.35366" lon="7.46729">
        <ele>696.13</ele>
        <time>2023-03-04T14:13:01Z</time>
      </trkpt>
      <trkpt lat="44.35358" lon="7.46716">
        <ele>693.25</ele>
        <time>2023-03-04T14:13:14Z</time>
      </trkpt>
      <trkpt lat="44.35347" lon="7.46704">
        <ele>690.84</ele>
        <time>2023-03-04T14:13:29Z</time>
      </trkpt>
      <trkpt lat="44.35336" lon="7.46691">
        <ele>690.36</ele>
        <time>2023-03-04T14:13:44Z</time>
      </trkpt>
      <trkpt lat="44.35322" lon="7.46685">
        <ele>693.25</ele>
        <time>2023-03-04T14:13:58Z</time>
      </trkpt>
      <trkpt lat="44.35304" lon="7.4669">
        <ele>700.46</ele>
        <time>2023-03-04T14:14:16Z</time>
      </trkpt>
      <trkpt lat="44.35294" lon="7.46702">
        <ele>705.26</ele>
        <time>2023-03-04T14:14:33Z</time>
      </trkpt>
      <trkpt lat="44.35286" lon="7.46711">
        <ele>709.11</ele>
        <time>2023-03-04T14:14:48Z</time>
      </trkpt>
      <trkpt lat="44.35279" lon="7.46711">
        <ele>704.78</ele>
        <time>2023-03-04T14:15:04Z</time>
      </trkpt>
      <trkpt lat="44.3528" lon="7.46699">
        <ele>708.15</ele>
        <time>2023-03-04T14:15:19Z</time>
      </trkpt>
      <trkpt lat="44.3528" lon="7.46682">
        <ele>709.59</ele>
        <time>2023-03-04T14:15:35Z</time>
      </trkpt>
      <trkpt lat="44.35276" lon="7.46662">
        <ele>713.44</ele>
        <time>2023-03-04T14:15:54Z</time>
      </trkpt>
      <trkpt lat="44.35273" lon="7.46651">
        <ele>716.8</ele>
        <time>2023-03-04T14:16:09Z</time>
      </trkpt>
      <trkpt lat="44.35269" lon="7.46663">
        <ele>717.76</ele>
        <time>2023-03-04T14:16:25Z</time>
      </trkpt>
      <trkpt lat="44.35267" lon="7.46667">
        <ele>719.2</ele>
        <time>2023-03-04T14:16:40Z</time>
      </trkpt>
      <trkpt lat="44.35264" lon="7.46669">
        <ele>720.16</ele>
        <time>2023-03-04T14:16:54Z</time>
      </trkpt>
      <trkpt lat="44.35255" lon="7.46674">
        <ele>719.68</ele>
        <time>2023-03-04T14:17:11Z</time>
      </trkpt>
      <trkpt lat="44.35252" lon="7.46675">
        <ele>719.2</ele>
        <time>2023-03-04T14:17:28Z</time>
      </trkpt>
      <trkpt lat="44.35247" lon="7.46673">
        <ele>719.68</ele>
        <time>2023-03-04T14:17:44Z</time>
      </trkpt>
      <trkpt lat="44.35242" lon="7.46673">
        <ele>721.61</ele>
        <time>2023-03-04T14:18:02Z</time>
      </trkpt>
      <trkpt lat="44.35236" lon="7.46674">
        <ele>715.36</ele>
        <time>2023-03-04T14:18:21Z</time>
      </trkpt>
      <trkpt lat="44.35232" lon="7.46669">
        <ele>713.92</ele>
        <time>2023-03-04T14:18:36Z</time>
      </trkpt>
      <trkpt lat="44.3522" lon="7.46668">
        <ele>712.95</ele>
        <time>2023-03-04T14:18:53Z</time>
      </trkpt>
      <trkpt lat="44.35206" lon="7.46659">
        <ele>717.76</ele>
        <time>2023-03-04T14:19:12Z</time>
      </trkpt>
      <trkpt lat="44.35191" lon="7.4665">
        <ele>719.68</ele>
        <time>2023-03-04T14:19:31Z</time>
      </trkpt>
      <trkpt lat="44.35183" lon="7.46646">
        <ele>716.8</ele>
        <time>2023-03-04T14:19:49Z</time>
      </trkpt>
      <trkpt lat="44.35171" lon="7.46638">
        <ele>717.76</ele>
        <time>2023-03-04T14:20:11Z</time>
      </trkpt>
      <trkpt lat="44.35164" lon="7.46631">
        <ele>719.2</ele>
        <time>2023-03-04T14:20:30Z</time>
      </trkpt>
      <trkpt lat="44.35154" lon="7.4663">
        <ele>722.09</ele>
        <time>2023-03-04T14:20:48Z</time>
      </trkpt>
      <trkpt lat="44.35143" lon="7.4663">
        <ele>724.01</ele>
        <time>2023-03-04T14:21:06Z</time>
      </trkpt>
      <trkpt lat="44.35132" lon="7.46625">
        <ele>725.45</ele>
        <time>2023-03-04T14:21:27Z</time>
      </trkpt>
      <trkpt lat="44.35122" lon="7.46625">
        <ele>730.74</ele>
        <time>2023-03-04T14:21:45Z</time>
      </trkpt>
      <trkpt lat="44.35109" lon="7.46621">
        <ele>736.51</ele>
        <time>2023-03-04T14:22:05Z</time>
      </trkpt>
      <trkpt lat="44.35105" lon="7.46611">
        <ele>738.43</ele>
        <time>2023-03-04T14:22:20Z</time>
      </trkpt>
      <trkpt lat="44.35105" lon="7.46598">
        <ele>738.43</ele>
        <time>2023-03-04T14:22:38Z</time>
      </trkpt>
      <trkpt lat="44.35103" lon="7.46581">
        <ele>740.83</ele>
        <time>2023-03-04T14:22:56Z</time>
      </trkpt>
      <trkpt lat="44.35102" lon="7.46566">
        <ele>744.68</ele>
        <time>2023-03-04T14:23:16Z</time>
      </trkpt>
      <trkpt lat="44.35098" lon="7.46552">
        <ele>755.73</ele>
        <time>2023-03-04T14:23:35Z</time>
      </trkpt>
      <trkpt lat="44.35092" lon="7.4653">
        <ele>761.02</ele>
        <time>2023-03-04T14:23:53Z</time>
      </trkpt>
      <trkpt lat="44.35086" lon="7.46522">
        <ele>762.46</ele>
        <time>2023-03-04T14:24:09Z</time>
      </trkpt>
      <trkpt lat="44.35081" lon="7.46511">
        <ele>767.27</ele>
        <time>2023-03-04T14:24:23Z</time>
      </trkpt>
      <trkpt lat="44.35083" lon="7.46502">
        <ele>763.9</ele>
        <time>2023-03-04T14:24:38Z</time>
      </trkpt>
      <trkpt lat="44.35101" lon="7.46512">
        <ele>766.31</ele>
        <time>2023-03-04T14:24:55Z</time>
      </trkpt>
      <trkpt lat="44.35112" lon="7.46521">
        <ele>766.79</ele>
        <time>2023-03-04T14:25:10Z</time>
      </trkpt>
      <trkpt lat="44.35122" lon="7.46524">
        <ele>767.27</ele>
        <time>2023-03-04T14:25:25Z</time>
      </trkpt>
      <trkpt lat="44.35126" lon="7.46505">
        <ele>768.23</ele>
        <time>2023-03-04T14:25:41Z</time>
      </trkpt>
      <trkpt lat="44.35121" lon="7.46493">
        <ele>770.63</ele>
        <time>2023-03-04T14:25:55Z</time>
      </trkpt>
      <trkpt lat="44.35114" lon="7.46475">
        <ele>772.56</ele>
        <time>2023-03-04T14:26:13Z</time>
      </trkpt>
      <trkpt lat="44.35111" lon="7.46464">
        <ele>775.44</ele>
        <time>2023-03-04T14:26:28Z</time>
      </trkpt>
      <trkpt lat="44.35104" lon="7.4646">
        <ele>778.81</ele>
        <time>2023-03-04T14:26:44Z</time>
      </trkpt>
      <trkpt lat="44.35097" lon="7.46455">
        <ele>782.17</ele>
        <time>2023-03-04T14:27:02Z</time>
      </trkpt>
      <trkpt lat="44.35089" lon="7.46449">
        <ele>783.61</ele>
        <time>2023-03-04T14:27:17Z</time>
      </trkpt>
      <trkpt lat="44.35084" lon="7.46436">
        <ele>783.13</ele>
        <time>2023-03-04T14:27:32Z</time>
      </trkpt>
      <trkpt lat="44.35082" lon="7.46418">
        <ele>786.5</ele>
        <time>2023-03-04T14:27:49Z</time>
      </trkpt>
      <trkpt lat="44.35072" lon="7.46407">
        <ele>785.53</ele>
        <time>2023-03-04T14:28:05Z</time>
      </trkpt>
      <trkpt lat="44.35065" lon="7.46395">
        <ele>787.46</ele>
        <time>2023-03-04T14:28:19Z</time>
      </trkpt>
      <trkpt lat="44.35063" lon="7.46384">
        <ele>796.59</ele>
        <time>2023-03-04T14:28:38Z</time>
      </trkpt>
      <trkpt lat="44.35059" lon="7.4637">
        <ele>801.4</ele>
        <time>2023-03-04T14:28:57Z</time>
      </trkpt>
      <trkpt lat="44.35056" lon="7.46359">
        <ele>807.64</ele>
        <time>2023-03-04T14:29:15Z</time>
      </trkpt>
      <trkpt lat="44.35053" lon="7.46342">
        <ele>811.97</ele>
        <time>2023-03-04T14:29:34Z</time>
      </trkpt>
      <trkpt lat="44.35049" lon="7.46329">
        <ele>814.85</ele>
        <time>2023-03-04T14:29:51Z</time>
      </trkpt>
      <trkpt lat="44.35047" lon="7.46315">
        <ele>819.18</ele>
        <time>2023-03-04T14:30:07Z</time>
      </trkpt>
      <trkpt lat="44.35044" lon="7.46303">
        <ele>819.66</ele>
        <time>2023-03-04T14:30:23Z</time>
      </trkpt>
      <trkpt lat="44.35038" lon="7.4629">
        <ele>822.55</ele>
        <time>2023-03-04T14:30:43Z</time>
      </trkpt>
      <trkpt lat="44.35041" lon="7.46277">
        <ele>823.51</ele>
        <time>2023-03-04T14:31:00Z</time>
      </trkpt>
      <trkpt lat="44.35036" lon="7.46265">
        <ele>828.31</ele>
        <time>2023-03-04T14:31:18Z</time>
      </trkpt>
      <trkpt lat="44.35024" lon="7.46256">
        <ele>832.16</ele>
        <time>2023-03-04T14:31:34Z</time>
      </trkpt>
      <trkpt lat="44.35013" lon="7.46253">
        <ele>835.04</ele>
        <time>2023-03-04T14:31:53Z</time>
      </trkpt>
      <trkpt lat="44.35007" lon="7.46249">
        <ele>837.93</ele>
        <time>2023-03-04T14:32:13Z</time>
      </trkpt>
      <trkpt lat="44.34994" lon="7.46255">
        <ele>839.37</ele>
        <time>2023-03-04T14:32:29Z</time>
      </trkpt>
      <trkpt lat="44.34991" lon="7.46271">
        <ele>839.85</ele>
        <time>2023-03-04T14:32:47Z</time>
      </trkpt>
      <trkpt lat="44.34988" lon="7.4628">
        <ele>844.66</ele>
        <time>2023-03-04T14:33:05Z</time>
      </trkpt>
      <trkpt lat="44.34979" lon="7.46285">
        <ele>848.5</ele>
        <time>2023-03-04T14:33:22Z</time>
      </trkpt>
      <trkpt lat="44.34963" lon="7.46294">
        <ele>846.1</ele>
        <time>2023-03-04T14:33:39Z</time>
      </trkpt>
      <trkpt lat="44.34954" lon="7.46307">
        <ele>846.58</ele>
        <time>2023-03-04T14:33:57Z</time>
      </trkpt>
      <trkpt lat="44.3495" lon="7.46315">
        <ele>851.38</ele>
        <time>2023-03-04T14:34:13Z</time>
      </trkpt>
      <trkpt lat="44.3494" lon="7.46323">
        <ele>855.23</ele>
        <time>2023-03-04T14:34:30Z</time>
      </trkpt>
      <trkpt lat="44.3494" lon="7.46326">
        <ele>853.31</ele>
        <time>2023-03-04T14:34:45Z</time>
      </trkpt>
      <trkpt lat="44.34935" lon="7.46316">
        <ele>856.67</ele>
        <time>2023-03-04T14:35:00Z</time>
      </trkpt>
      <trkpt lat="44.34928" lon="7.46307">
        <ele>857.63</ele>
        <time>2023-03-04T14:35:15Z</time>
      </trkpt>
      <trkpt lat="44.34915" lon="7.46296">
        <ele>857.63</ele>
        <time>2023-03-04T14:35:29Z</time>
      </trkpt>
      <trkpt lat="44.34902" lon="7.46282">
        <ele>857.15</ele>
        <time>2023-03-04T14:35:44Z</time>
      </trkpt>
      <trkpt lat="44.34901" lon="7.46264">
        <ele>857.63</ele>
        <time>2023-03-04T14:36:00Z</time>
      </trkpt>
      <trkpt lat="44.34888" lon="7.4626">
        <ele>859.08</ele>
        <time>2023-03-04T14:36:17Z</time>
      </trkpt>
      <trkpt lat="44.3488" lon="7.46255">
        <ele>856.19</ele>
        <time>2023-03-04T14:36:34Z</time>
      </trkpt>
      <trkpt lat="44.34873" lon="7.46248">
        <ele>857.63</ele>
        <time>2023-03-04T14:36:50Z</time>
      </trkpt>
      <trkpt lat="44.34863" lon="7.46244">
        <ele>858.11</ele>
        <time>2023-03-04T14:37:06Z</time>
      </trkpt>
      <trkpt lat="44.34856" lon="7.4624">
        <ele>860.04</ele>
        <time>2023-03-04T14:37:15Z</time>
      </trkpt>
      <trkpt lat="44.34847" lon="7.46234">
        <ele>856.19</ele>
        <time>2023-03-04T14:37:28Z</time>
      </trkpt>
      <trkpt lat="44.3485" lon="7.4624">
        <ele>851.87</ele>
        <time>2023-03-04T14:37:40Z</time>
      </trkpt>
      <trkpt lat="44.34852" lon="7.46236">
        <ele>854.27</ele>
        <time>2023-03-04T14:37:52Z</time>
      </trkpt>
      <trkpt lat="44.34854" lon="7.46233">
        <ele>857.15</ele>
        <time>2023-03-04T14:38:04Z</time>
      </trkpt>
      <trkpt lat="44.34856" lon="7.46227">
        <ele>860.04</ele>
        <time>2023-03-04T14:38:17Z</time>
      </trkpt>
      <trkpt lat="44.3486" lon="7.46225">
        <ele>861</ele>
        <time>2023-03-04T14:38:33Z</time>
      </trkpt>
      <trkpt lat="44.34858" lon="7.4622">
        <ele>861.48</ele>
        <time>2023-03-04T14:38:49Z</time>
      </trkpt>
      <trkpt lat="44.3486" lon="7.4622">
        <ele>860.52</ele>
        <time>2023-03-04T14:39:14Z</time>
      </trkpt>
      <trkpt lat="44.34859" lon="7.46222">
        <ele>855.71</ele>
        <time>2023-03-04T14:39:36Z</time>
      </trkpt>
      <trkpt lat="44.34858" lon="7.46222">
        <ele>855.71</ele>
        <time>2023-03-04T14:40:03Z</time>
      </trkpt>
      <trkpt lat="44.34856" lon="7.46224">
        <ele>858.11</ele>
        <time>2023-03-04T14:40:39Z</time>
      </trkpt>
      <trkpt lat="44.34859" lon="7.46223">
        <ele>859.08</ele>
        <time>2023-03-04T14:41:19Z</time>
      </trkpt>
      <trkpt lat="44.3486" lon="7.46209">
        <ele>857.15</ele>
        <time>2023-03-04T14:41:34Z</time>
      </trkpt>
      <trkpt lat="44.34863" lon="7.46206">
        <ele>857.15</ele>
        <time>2023-03-04T14:41:42Z</time>
      </trkpt>
      <trkpt lat="44.34874" lon="7.462">
        <ele>857.15</ele>
        <time>2023-03-04T14:41:59Z</time>
      </trkpt>
      <trkpt lat="44.34877" lon="7.46191">
        <ele>860.04</ele>
        <time>2023-03-04T14:42:13Z</time>
      </trkpt>
      <trkpt lat="44.34889" lon="7.46183">
        <ele>865.32</ele>
        <time>2023-03-04T14:42:29Z</time>
      </trkpt>
      <trkpt lat="44.34897" lon="7.46175">
        <ele>870.13</ele>
        <time>2023-03-04T14:42:43Z</time>
      </trkpt>
      <trkpt lat="44.34902" lon="7.46164">
        <ele>874.94</ele>
        <time>2023-03-04T14:42:59Z</time>
      </trkpt>
      <trkpt lat="44.34906" lon="7.46161">
        <ele>878.3</ele>
        <time>2023-03-04T14:43:14Z</time>
      </trkpt>
      <trkpt lat="44.34912" lon="7.46157">
        <ele>881.19</ele>
        <time>2023-03-04T14:43:29Z</time>
      </trkpt>
      <trkpt lat="44.34914" lon="7.4614">
        <ele>882.15</ele>
        <time>2023-03-04T14:43:44Z</time>
      </trkpt>
      <trkpt lat="44.34916" lon="7.46137">
        <ele>883.59</ele>
        <time>2023-03-04T14:44:00Z</time>
      </trkpt>
      <trkpt lat="44.3492" lon="7.46124">
        <ele>885.51</ele>
        <time>2023-03-04T14:44:14Z</time>
      </trkpt>
      <trkpt lat="44.34926" lon="7.46117">
        <ele>885.03</ele>
        <time>2023-03-04T14:44:28Z</time>
      </trkpt>
      <trkpt lat="44.34932" lon="7.46103">
        <ele>888.4</ele>
        <time>2023-03-04T14:44:44Z</time>
      </trkpt>
      <trkpt lat="44.34939" lon="7.4609">
        <ele>889.36</ele>
        <time>2023-03-04T14:44:59Z</time>
      </trkpt>
      <trkpt lat="44.34948" lon="7.4609">
        <ele>892.72</ele>
        <time>2023-03-04T14:45:13Z</time>
      </trkpt>
      <trkpt lat="44.3496" lon="7.4609">
        <ele>897.53</ele>
        <time>2023-03-04T14:45:28Z</time>
      </trkpt>
      <trkpt lat="44.34975" lon="7.46085">
        <ele>897.53</ele>
        <time>2023-03-04T14:45:45Z</time>
      </trkpt>
      <trkpt lat="44.34985" lon="7.46086">
        <ele>899.93</ele>
        <time>2023-03-04T14:46:00Z</time>
      </trkpt>
      <trkpt lat="44.34996" lon="7.46074">
        <ele>902.82</ele>
        <time>2023-03-04T14:46:16Z</time>
      </trkpt>
      <trkpt lat="44.35004" lon="7.46058">
        <ele>905.22</ele>
        <time>2023-03-04T14:46:33Z</time>
      </trkpt>
      <trkpt lat="44.35011" lon="7.46045">
        <ele>907.62</ele>
        <time>2023-03-04T14:46:49Z</time>
      </trkpt>
      <trkpt lat="44.35019" lon="7.46036">
        <ele>909.54</ele>
        <time>2023-03-04T14:47:03Z</time>
      </trkpt>
      <trkpt lat="44.35028" lon="7.46021">
        <ele>911.47</ele>
        <time>2023-03-04T14:47:20Z</time>
      </trkpt>
      <trkpt lat="44.3503" lon="7.46012">
        <ele>910.51</ele>
        <time>2023-03-04T14:47:35Z</time>
      </trkpt>
      <trkpt lat="44.35036" lon="7.46003">
        <ele>909.06</ele>
        <time>2023-03-04T14:47:50Z</time>
      </trkpt>
      <trkpt lat="44.35041" lon="7.45997">
        <ele>910.99</ele>
        <time>2023-03-04T14:48:06Z</time>
      </trkpt>
      <trkpt lat="44.35049" lon="7.45988">
        <ele>910.99</ele>
        <time>2023-03-04T14:48:21Z</time>
      </trkpt>
      <trkpt lat="44.3506" lon="7.45977">
        <ele>913.87</ele>
        <time>2023-03-04T14:48:38Z</time>
      </trkpt>
      <trkpt lat="44.35064" lon="7.45977">
        <ele>915.79</ele>
        <time>2023-03-04T14:48:53Z</time>
      </trkpt>
      <trkpt lat="44.35068" lon="7.45974">
        <ele>917.24</ele>
        <time>2023-03-04T14:49:35Z</time>
      </trkpt>
      <trkpt lat="44.3507" lon="7.45978">
        <ele>914.35</ele>
        <time>2023-03-04T14:49:55Z</time>
      </trkpt>
      <trkpt lat="44.35072" lon="7.45971">
        <ele>914.35</ele>
        <time>2023-03-04T14:50:10Z</time>
      </trkpt>
      <trkpt lat="44.35076" lon="7.4596">
        <ele>917.72</ele>
        <time>2023-03-04T14:50:28Z</time>
      </trkpt>
      <trkpt lat="44.35084" lon="7.4595">
        <ele>926.37</ele>
        <time>2023-03-04T14:50:45Z</time>
      </trkpt>
      <trkpt lat="44.35086" lon="7.45944">
        <ele>930.21</ele>
        <time>2023-03-04T14:51:02Z</time>
      </trkpt>
      <trkpt lat="44.35088" lon="7.45933">
        <ele>934.06</ele>
        <time>2023-03-04T14:51:20Z</time>
      </trkpt>
      <trkpt lat="44.35088" lon="7.45922">
        <ele>936.46</ele>
        <time>2023-03-04T14:51:35Z</time>
      </trkpt>
      <trkpt lat="44.3509" lon="7.45902">
        <ele>940.79</ele>
        <time>2023-03-04T14:51:53Z</time>
      </trkpt>
      <trkpt lat="44.35091" lon="7.45885">
        <ele>943.67</ele>
        <time>2023-03-04T14:52:11Z</time>
      </trkpt>
      <trkpt lat="44.35093" lon="7.45868">
        <ele>946.07</ele>
        <time>2023-03-04T14:52:28Z</time>
      </trkpt>
      <trkpt lat="44.35095" lon="7.45848">
        <ele>948.96</ele>
        <time>2023-03-04T14:52:45Z</time>
      </trkpt>
      <trkpt lat="44.35097" lon="7.45829">
        <ele>950.88</ele>
        <time>2023-03-04T14:53:01Z</time>
      </trkpt>
      <trkpt lat="44.35098" lon="7.45815">
        <ele>955.69</ele>
        <time>2023-03-04T14:53:19Z</time>
      </trkpt>
      <trkpt lat="44.35098" lon="7.458">
        <ele>958.57</ele>
        <time>2023-03-04T14:53:36Z</time>
      </trkpt>
      <trkpt lat="44.351" lon="7.45793">
        <ele>958.09</ele>
        <time>2023-03-04T14:53:43Z</time>
      </trkpt>
      <trkpt lat="44.35111" lon="7.45767">
        <ele>954.73</ele>
        <time>2023-03-04T14:54:01Z</time>
      </trkpt>
      <trkpt lat="44.35118" lon="7.45757">
        <ele>955.21</ele>
        <time>2023-03-04T14:54:10Z</time>
      </trkpt>
      <trkpt lat="44.35129" lon="7.45733">
        <ele>951.84</ele>
        <time>2023-03-04T14:54:23Z</time>
      </trkpt>
      <trkpt lat="44.3513" lon="7.45729">
        <ele>952.32</ele>
        <time>2023-03-04T14:54:25Z</time>
      </trkpt>
      <trkpt lat="44.35135" lon="7.4572">
        <ele>950.4</ele>
        <time>2023-03-04T14:54:29Z</time>
      </trkpt>
      <trkpt lat="44.35146" lon="7.45699">
        <ele>950.4</ele>
        <time>2023-03-04T14:54:46Z</time>
      </trkpt>
      <trkpt lat="44.35157" lon="7.4569">
        <ele>954.73</ele>
        <time>2023-03-04T14:55:03Z</time>
      </trkpt>
      <trkpt lat="44.35173" lon="7.45678">
        <ele>957.61</ele>
        <time>2023-03-04T14:55:19Z</time>
      </trkpt>
      <trkpt lat="44.35178" lon="7.45674">
        <ele>958.57</ele>
        <time>2023-03-04T14:55:24Z</time>
      </trkpt>
      <trkpt lat="44.35191" lon="7.45665">
        <ele>962.42</ele>
        <time>2023-03-04T14:55:40Z</time>
      </trkpt>
      <trkpt lat="44.35201" lon="7.4566">
        <ele>963.38</ele>
        <time>2023-03-04T14:55:54Z</time>
      </trkpt>
      <trkpt lat="44.35214" lon="7.45652">
        <ele>963.38</ele>
        <time>2023-03-04T14:56:08Z</time>
      </trkpt>
      <trkpt lat="44.35219" lon="7.45645">
        <ele>962.42</ele>
        <time>2023-03-04T14:56:14Z</time>
      </trkpt>
      <trkpt lat="44.35231" lon="7.45625">
        <ele>961.46</ele>
        <time>2023-03-04T14:56:32Z</time>
      </trkpt>
      <trkpt lat="44.35239" lon="7.456">
        <ele>961.94</ele>
        <time>2023-03-04T14:56:50Z</time>
      </trkpt>
      <trkpt lat="44.35242" lon="7.45576">
        <ele>964.82</ele>
        <time>2023-03-04T14:57:08Z</time>
      </trkpt>
      <trkpt lat="44.35246" lon="7.45547">
        <ele>965.3</ele>
        <time>2023-03-04T14:57:27Z</time>
      </trkpt>
      <trkpt lat="44.35252" lon="7.45523">
        <ele>958.57</ele>
        <time>2023-03-04T14:57:43Z</time>
      </trkpt>
      <trkpt lat="44.35261" lon="7.45499">
        <ele>947.52</ele>
        <time>2023-03-04T14:58:03Z</time>
      </trkpt>
      <trkpt lat="44.35276" lon="7.45475">
        <ele>943.67</ele>
        <time>2023-03-04T14:58:21Z</time>
      </trkpt>
      <trkpt lat="44.35284" lon="7.45454">
        <ele>943.67</ele>
        <time>2023-03-04T14:58:38Z</time>
      </trkpt>
      <trkpt lat="44.35291" lon="7.45442">
        <ele>940.31</ele>
        <time>2023-03-04T14:58:51Z</time>
      </trkpt>
      <trkpt lat="44.35298" lon="7.45422">
        <ele>939.83</ele>
        <time>2023-03-04T14:59:06Z</time>
      </trkpt>
      <trkpt lat="44.35306" lon="7.45407">
        <ele>938.86</ele>
        <time>2023-03-04T14:59:20Z</time>
      </trkpt>
      <trkpt lat="44.35314" lon="7.45383">
        <ele>936.46</ele>
        <time>2023-03-04T14:59:39Z</time>
      </trkpt>
      <trkpt lat="44.35318" lon="7.45366">
        <ele>935.98</ele>
        <time>2023-03-04T14:59:55Z</time>
      </trkpt>
      <trkpt lat="44.35324" lon="7.45339">
        <ele>933.1</ele>
        <time>2023-03-04T15:00:11Z</time>
      </trkpt>
      <trkpt lat="44.35324" lon="7.45336">
        <ele>932.62</ele>
        <time>2023-03-04T15:00:13Z</time>
      </trkpt>
      <trkpt lat="44.35327" lon="7.45327">
        <ele>932.14</ele>
        <time>2023-03-04T15:00:22Z</time>
      </trkpt>
      <trkpt lat="44.35329" lon="7.4532">
        <ele>932.14</ele>
        <time>2023-03-04T15:00:27Z</time>
      </trkpt>
      <trkpt lat="44.35334" lon="7.45316">
        <ele>932.14</ele>
        <time>2023-03-04T15:00:32Z</time>
      </trkpt>
      <trkpt lat="44.35344" lon="7.45303">
        <ele>932.62</ele>
        <time>2023-03-04T15:00:47Z</time>
      </trkpt>
      <trkpt lat="44.35352" lon="7.45301">
        <ele>935.98</ele>
        <time>2023-03-04T15:01:03Z</time>
      </trkpt>
      <trkpt lat="44.35361" lon="7.45297">
        <ele>935.5</ele>
        <time>2023-03-04T15:01:18Z</time>
      </trkpt>
      <trkpt lat="44.35372" lon="7.45285">
        <ele>930.69</ele>
        <time>2023-03-04T15:01:36Z</time>
      </trkpt>
      <trkpt lat="44.35364" lon="7.45278">
        <ele>926.85</ele>
        <time>2023-03-04T15:01:49Z</time>
      </trkpt>
      <trkpt lat="44.35361" lon="7.45272">
        <ele>924.45</ele>
        <time>2023-03-04T15:02:05Z</time>
      </trkpt>
      <trkpt lat="44.35367" lon="7.45261">
        <ele>922.52</ele>
        <time>2023-03-04T15:02:26Z</time>
      </trkpt>
      <trkpt lat="44.35375" lon="7.45239">
        <ele>922.04</ele>
        <time>2023-03-04T15:02:44Z</time>
      </trkpt>
      <trkpt lat="44.35384" lon="7.45228">
        <ele>921.08</ele>
        <time>2023-03-04T15:03:00Z</time>
      </trkpt>
      <trkpt lat="44.35392" lon="7.45226">
        <ele>923</ele>
        <time>2023-03-04T15:03:14Z</time>
      </trkpt>
      <trkpt lat="44.35394" lon="7.45204">
        <ele>930.21</ele>
        <time>2023-03-04T15:03:34Z</time>
      </trkpt>
      <trkpt lat="44.35391" lon="7.4519">
        <ele>936.46</ele>
        <time>2023-03-04T15:03:51Z</time>
      </trkpt>
      <trkpt lat="44.35391" lon="7.45158">
        <ele>935.98</ele>
        <time>2023-03-04T15:04:07Z</time>
      </trkpt>
      <trkpt lat="44.35395" lon="7.4513">
        <ele>921.56</ele>
        <time>2023-03-04T15:04:22Z</time>
      </trkpt>
      <trkpt lat="44.354" lon="7.45112">
        <ele>917.24</ele>
        <time>2023-03-04T15:04:39Z</time>
      </trkpt>
      <trkpt lat="44.35404" lon="7.45107">
        <ele>916.75</ele>
        <time>2023-03-04T15:04:56Z</time>
      </trkpt>
      <trkpt lat="44.3541" lon="7.45097">
        <ele>915.79</ele>
        <time>2023-03-04T15:05:10Z</time>
      </trkpt>
      <trkpt lat="44.35419" lon="7.45099">
        <ele>919.64</ele>
        <time>2023-03-04T15:05:30Z</time>
      </trkpt>
      <trkpt lat="44.35416" lon="7.45102">
        <ele>924.45</ele>
        <time>2023-03-04T15:05:43Z</time>
      </trkpt>
      <trkpt lat="44.35413" lon="7.4511">
        <ele>928.29</ele>
        <time>2023-03-04T15:05:56Z</time>
      </trkpt>
      <trkpt lat="44.35414" lon="7.45129">
        <ele>931.65</ele>
        <time>2023-03-04T15:06:12Z</time>
      </trkpt>
      <trkpt lat="44.35417" lon="7.45137">
        <ele>935.02</ele>
        <time>2023-03-04T15:06:27Z</time>
      </trkpt>
      <trkpt lat="44.35419" lon="7.45148">
        <ele>940.79</ele>
        <time>2023-03-04T15:06:45Z</time>
      </trkpt>
      <trkpt lat="44.35426" lon="7.45153">
        <ele>946.56</ele>
        <time>2023-03-04T15:07:00Z</time>
      </trkpt>
      <trkpt lat="44.35445" lon="7.45151">
        <ele>944.15</ele>
        <time>2023-03-04T15:07:16Z</time>
      </trkpt>
      <trkpt lat="44.35451" lon="7.45156">
        <ele>939.83</ele>
        <time>2023-03-04T15:07:29Z</time>
      </trkpt>
      <trkpt lat="44.35453" lon="7.45159">
        <ele>938.86</ele>
        <time>2023-03-04T15:07:34Z</time>
      </trkpt>
      <trkpt lat="44.35459" lon="7.45167">
        <ele>937.9</ele>
        <time>2023-03-04T15:07:47Z</time>
      </trkpt>
      <trkpt lat="44.35465" lon="7.45164">
        <ele>936.94</ele>
        <time>2023-03-04T15:07:56Z</time>
      </trkpt>
      <trkpt lat="44.3547" lon="7.45154">
        <ele>936.46</ele>
        <time>2023-03-04T15:08:09Z</time>
      </trkpt>
      <trkpt lat="44.35476" lon="7.45146">
        <ele>935.5</ele>
        <time>2023-03-04T15:08:20Z</time>
      </trkpt>
      <trkpt lat="44.35486" lon="7.45133">
        <ele>933.1</ele>
        <time>2023-03-04T15:08:35Z</time>
      </trkpt>
      <trkpt lat="44.35489" lon="7.45131">
        <ele>932.62</ele>
        <time>2023-03-04T15:08:38Z</time>
      </trkpt>
      <trkpt lat="44.35499" lon="7.4512">
        <ele>932.14</ele>
        <time>2023-03-04T15:08:49Z</time>
      </trkpt>
      <trkpt lat="44.35502" lon="7.45113">
        <ele>934.06</ele>
        <time>2023-03-04T15:08:58Z</time>
      </trkpt>
      <trkpt lat="44.35511" lon="7.45108">
        <ele>936.94</ele>
        <time>2023-03-04T15:09:10Z</time>
      </trkpt>
      <trkpt lat="44.35517" lon="7.45109">
        <ele>938.38</ele>
        <time>2023-03-04T15:09:18Z</time>
      </trkpt>
      <trkpt lat="44.35527" lon="7.45108">
        <ele>942.23</ele>
        <time>2023-03-04T15:09:31Z</time>
      </trkpt>
      <trkpt lat="44.35534" lon="7.4511">
        <ele>943.19</ele>
        <time>2023-03-04T15:09:44Z</time>
      </trkpt>
      <trkpt lat="44.35541" lon="7.45105">
        <ele>944.63</ele>
        <time>2023-03-04T15:09:57Z</time>
      </trkpt>
      <trkpt lat="44.35549" lon="7.45089">
        <ele>945.59</ele>
        <time>2023-03-04T15:10:12Z</time>
      </trkpt>
      <trkpt lat="44.35552" lon="7.45069">
        <ele>948</ele>
        <time>2023-03-04T15:10:27Z</time>
      </trkpt>
      <trkpt lat="44.3556" lon="7.45057">
        <ele>948.48</ele>
        <time>2023-03-04T15:10:44Z</time>
      </trkpt>
      <trkpt lat="44.35566" lon="7.45047">
        <ele>954.25</ele>
        <time>2023-03-04T15:11:03Z</time>
      </trkpt>
      <trkpt lat="44.35571" lon="7.45031">
        <ele>962.42</ele>
        <time>2023-03-04T15:11:22Z</time>
      </trkpt>
      <trkpt lat="44.35573" lon="7.45015">
        <ele>969.15</ele>
        <time>2023-03-04T15:11:40Z</time>
      </trkpt>
      <trkpt lat="44.35568" lon="7.44994">
        <ele>976.84</ele>
        <time>2023-03-04T15:11:57Z</time>
      </trkpt>
      <trkpt lat="44.35566" lon="7.44969">
        <ele>982.6</ele>
        <time>2023-03-04T15:12:14Z</time>
      </trkpt>
      <trkpt lat="44.35562" lon="7.44949">
        <ele>982.6</ele>
        <time>2023-03-04T15:12:29Z</time>
      </trkpt>
      <trkpt lat="44.35547" lon="7.44927">
        <ele>968.18</ele>
        <time>2023-03-04T15:12:44Z</time>
      </trkpt>
      <trkpt lat="44.3555" lon="7.44911">
        <ele>960.98</ele>
        <time>2023-03-04T15:12:59Z</time>
      </trkpt>
      <trkpt lat="44.35556" lon="7.44897">
        <ele>958.09</ele>
        <time>2023-03-04T15:13:16Z</time>
      </trkpt>
      <trkpt lat="44.35559" lon="7.44879">
        <ele>960.49</ele>
        <time>2023-03-04T15:13:33Z</time>
      </trkpt>
      <trkpt lat="44.3556" lon="7.44864">
        <ele>961.94</ele>
        <time>2023-03-04T15:13:51Z</time>
      </trkpt>
      <trkpt lat="44.35566" lon="7.44844">
        <ele>957.61</ele>
        <time>2023-03-04T15:14:09Z</time>
      </trkpt>
      <trkpt lat="44.35568" lon="7.4484">
        <ele>955.69</ele>
        <time>2023-03-04T15:14:16Z</time>
      </trkpt>
      <trkpt lat="44.35577" lon="7.44833">
        <ele>958.57</ele>
        <time>2023-03-04T15:14:32Z</time>
      </trkpt>
      <trkpt lat="44.35588" lon="7.44826">
        <ele>964.82</ele>
        <time>2023-03-04T15:14:48Z</time>
      </trkpt>
      <trkpt lat="44.35598" lon="7.4482">
        <ele>969.15</ele>
        <time>2023-03-04T15:15:03Z</time>
      </trkpt>
      <trkpt lat="44.35607" lon="7.44818">
        <ele>972.03</ele>
        <time>2023-03-04T15:15:17Z</time>
      </trkpt>
      <trkpt lat="44.3561" lon="7.44815">
        <ele>975.39</ele>
        <time>2023-03-04T15:15:33Z</time>
      </trkpt>
      <trkpt lat="44.35622" lon="7.44812">
        <ele>978.76</ele>
        <time>2023-03-04T15:15:50Z</time>
      </trkpt>
      <trkpt lat="44.35637" lon="7.4482">
        <ele>982.12</ele>
        <time>2023-03-04T15:16:12Z</time>
      </trkpt>
      <trkpt lat="44.35645" lon="7.44826">
        <ele>984.05</ele>
        <time>2023-03-04T15:16:27Z</time>
      </trkpt>
      <trkpt lat="44.35654" lon="7.44826">
        <ele>990.3</ele>
        <time>2023-03-04T15:16:45Z</time>
      </trkpt>
      <trkpt lat="44.35664" lon="7.44832">
        <ele>993.18</ele>
        <time>2023-03-04T15:17:01Z</time>
      </trkpt>
      <trkpt lat="44.35674" lon="7.44835">
        <ele>992.22</ele>
        <time>2023-03-04T15:17:16Z</time>
      </trkpt>
      <trkpt lat="44.35685" lon="7.44837">
        <ele>992.7</ele>
        <time>2023-03-04T15:17:35Z</time>
      </trkpt>
      <trkpt lat="44.35693" lon="7.44832">
        <ele>996.54</ele>
        <time>2023-03-04T15:17:51Z</time>
      </trkpt>
      <trkpt lat="44.35703" lon="7.44833">
        <ele>1000.39</ele>
        <time>2023-03-04T15:18:07Z</time>
      </trkpt>
      <trkpt lat="44.35713" lon="7.4484">
        <ele>1003.75</ele>
        <time>2023-03-04T15:18:28Z</time>
      </trkpt>
      <trkpt lat="44.35718" lon="7.44845">
        <ele>1004.23</ele>
        <time>2023-03-04T15:18:46Z</time>
      </trkpt>
      <trkpt lat="44.35723" lon="7.44857">
        <ele>1003.75</ele>
        <time>2023-03-04T15:19:01Z</time>
      </trkpt>
      <trkpt lat="44.35731" lon="7.44858">
        <ele>1001.83</ele>
        <time>2023-03-04T15:19:19Z</time>
      </trkpt>
      <trkpt lat="44.35737" lon="7.44846">
        <ele>1001.83</ele>
        <time>2023-03-04T15:19:36Z</time>
      </trkpt>
      <trkpt lat="44.35748" lon="7.44823">
        <ele>1001.35</ele>
        <time>2023-03-04T15:19:53Z</time>
      </trkpt>
      <trkpt lat="44.35755" lon="7.44804">
        <ele>1000.87</ele>
        <time>2023-03-04T15:20:11Z</time>
      </trkpt>
      <trkpt lat="44.3576" lon="7.44788">
        <ele>997.99</ele>
        <time>2023-03-04T15:20:27Z</time>
      </trkpt>
      <trkpt lat="44.35765" lon="7.44766">
        <ele>998.95</ele>
        <time>2023-03-04T15:20:45Z</time>
      </trkpt>
      <trkpt lat="44.35766" lon="7.4475">
        <ele>998.95</ele>
        <time>2023-03-04T15:21:02Z</time>
      </trkpt>
      <trkpt lat="44.35773" lon="7.44742">
        <ele>1000.39</ele>
        <time>2023-03-04T15:21:17Z</time>
      </trkpt>
      <trkpt lat="44.35779" lon="7.44726">
        <ele>1001.83</ele>
        <time>2023-03-04T15:21:34Z</time>
      </trkpt>
      <trkpt lat="44.35788" lon="7.44709">
        <ele>1000.39</ele>
        <time>2023-03-04T15:21:52Z</time>
      </trkpt>
      <trkpt lat="44.35793" lon="7.44705">
        <ele>999.91</ele>
        <time>2023-03-04T15:22:07Z</time>
      </trkpt>
      <trkpt lat="44.35805" lon="7.44698">
        <ele>1002.79</ele>
        <time>2023-03-04T15:22:25Z</time>
      </trkpt>
      <trkpt lat="44.35815" lon="7.4469">
        <ele>1003.75</ele>
        <time>2023-03-04T15:22:40Z</time>
      </trkpt>
      <trkpt lat="44.35826" lon="7.44679">
        <ele>1004.72</ele>
        <time>2023-03-04T15:22:56Z</time>
      </trkpt>
      <trkpt lat="44.35837" lon="7.44672">
        <ele>1007.12</ele>
        <time>2023-03-04T15:23:13Z</time>
      </trkpt>
      <trkpt lat="44.35842" lon="7.44671">
        <ele>1010</ele>
        <time>2023-03-04T15:23:28Z</time>
      </trkpt>
      <trkpt lat="44.3585" lon="7.44668">
        <ele>1012.89</ele>
        <time>2023-03-04T15:23:43Z</time>
      </trkpt>
      <trkpt lat="44.35857" lon="7.44661">
        <ele>1014.81</ele>
        <time>2023-03-04T15:23:59Z</time>
      </trkpt>
      <trkpt lat="44.35859" lon="7.44656">
        <ele>1014.33</ele>
        <time>2023-03-04T15:24:11Z</time>
      </trkpt>
      <trkpt lat="44.35867" lon="7.44653">
        <ele>1015.77</ele>
        <time>2023-03-04T15:24:27Z</time>
      </trkpt>
      <trkpt lat="44.35867" lon="7.44651">
        <ele>1018.17</ele>
        <time>2023-03-04T15:24:43Z</time>
      </trkpt>
      <trkpt lat="44.35869" lon="7.44648">
        <ele>1022.98</ele>
        <time>2023-03-04T15:24:59Z</time>
      </trkpt>
      <trkpt lat="44.35876" lon="7.44652">
        <ele>1021.06</ele>
        <time>2023-03-04T15:25:15Z</time>
      </trkpt>
      <trkpt lat="44.35891" lon="7.44654">
        <ele>1014.81</ele>
        <time>2023-03-04T15:25:32Z</time>
      </trkpt>
      <trkpt lat="44.35899" lon="7.44656">
        <ele>1013.85</ele>
        <time>2023-03-04T15:25:45Z</time>
      </trkpt>
      <trkpt lat="44.35908" lon="7.44659">
        <ele>1014.81</ele>
        <time>2023-03-04T15:25:59Z</time>
      </trkpt>
      <trkpt lat="44.35914" lon="7.44662">
        <ele>1014.81</ele>
        <time>2023-03-04T15:26:13Z</time>
      </trkpt>
      <trkpt lat="44.3592" lon="7.44661">
        <ele>1015.29</ele>
        <time>2023-03-04T15:26:27Z</time>
      </trkpt>
      <trkpt lat="44.35933" lon="7.44662">
        <ele>1015.77</ele>
        <time>2023-03-04T15:26:43Z</time>
      </trkpt>
      <trkpt lat="44.3594" lon="7.44666">
        <ele>1018.17</ele>
        <time>2023-03-04T15:26:57Z</time>
      </trkpt>
      <trkpt lat="44.35943" lon="7.44668">
        <ele>1019.13</ele>
        <time>2023-03-04T15:27:01Z</time>
      </trkpt>
      <trkpt lat="44.35958" lon="7.44666">
        <ele>1021.06</ele>
        <time>2023-03-04T15:27:18Z</time>
      </trkpt>
      <trkpt lat="44.35973" lon="7.44659">
        <ele>1020.58</ele>
        <time>2023-03-04T15:27:32Z</time>
      </trkpt>
      <trkpt lat="44.35982" lon="7.44655">
        <ele>1023.46</ele>
        <time>2023-03-04T15:27:47Z</time>
      </trkpt>
      <trkpt lat="44.35989" lon="7.44654">
        <ele>1025.38</ele>
        <time>2023-03-04T15:27:58Z</time>
      </trkpt>
      <trkpt lat="44.35999" lon="7.44655">
        <ele>1028.27</ele>
        <time>2023-03-04T15:28:11Z</time>
      </trkpt>
      <trkpt lat="44.36011" lon="7.44647">
        <ele>1027.31</ele>
        <time>2023-03-04T15:28:26Z</time>
      </trkpt>
      <trkpt lat="44.36018" lon="7.44646">
        <ele>1026.34</ele>
        <time>2023-03-04T15:28:38Z</time>
      </trkpt>
      <trkpt lat="44.36026" lon="7.44651">
        <ele>1026.83</ele>
        <time>2023-03-04T15:28:54Z</time>
      </trkpt>
      <trkpt lat="44.36047" lon="7.44659">
        <ele>1023.46</ele>
        <time>2023-03-04T15:29:08Z</time>
      </trkpt>
      <trkpt lat="44.36059" lon="7.44658">
        <ele>1021.54</ele>
        <time>2023-03-04T15:29:21Z</time>
      </trkpt>
      <trkpt lat="44.36063" lon="7.4466">
        <ele>1024.9</ele>
        <time>2023-03-04T15:29:30Z</time>
      </trkpt>
      <trkpt lat="44.36079" lon="7.44663">
        <ele>1026.34</ele>
        <time>2023-03-04T15:29:44Z</time>
      </trkpt>
      <trkpt lat="44.36091" lon="7.44662">
        <ele>1027.31</ele>
        <time>2023-03-04T15:29:59Z</time>
      </trkpt>
      <trkpt lat="44.36102" lon="7.44663">
        <ele>1030.67</ele>
        <time>2023-03-04T15:30:16Z</time>
      </trkpt>
      <trkpt lat="44.36108" lon="7.44669">
        <ele>1031.15</ele>
        <time>2023-03-04T15:30:29Z</time>
      </trkpt>
      <trkpt lat="44.36116" lon="7.44675">
        <ele>1031.15</ele>
        <time>2023-03-04T15:30:42Z</time>
      </trkpt>
      <trkpt lat="44.36124" lon="7.44678">
        <ele>1031.63</ele>
        <time>2023-03-04T15:30:56Z</time>
      </trkpt>
      <trkpt lat="44.36132" lon="7.44681">
        <ele>1028.27</ele>
        <time>2023-03-04T15:31:10Z</time>
      </trkpt>
      <trkpt lat="44.36143" lon="7.44689">
        <ele>1029.23</ele>
        <time>2023-03-04T15:31:24Z</time>
      </trkpt>
      <trkpt lat="44.36148" lon="7.44697">
        <ele>1028.27</ele>
        <time>2023-03-04T15:31:38Z</time>
      </trkpt>
      <trkpt lat="44.36146" lon="7.44706">
        <ele>1031.63</ele>
        <time>2023-03-04T15:31:55Z</time>
      </trkpt>
      <trkpt lat="44.36159" lon="7.44715">
        <ele>1035</ele>
        <time>2023-03-04T15:32:10Z</time>
      </trkpt>
      <trkpt lat="44.36175" lon="7.4472">
        <ele>1036.92</ele>
        <time>2023-03-04T15:32:33Z</time>
      </trkpt>
      <trkpt lat="44.36213" lon="7.44749">
        <ele>1020.58</ele>
        <time>2023-03-04T15:32:50Z</time>
      </trkpt>
      <trkpt lat="44.36226" lon="7.44738">
        <ele>1011.93</ele>
        <time>2023-03-04T15:33:03Z</time>
      </trkpt>
      <trkpt lat="44.36235" lon="7.44731">
        <ele>1009.04</ele>
        <time>2023-03-04T15:33:19Z</time>
      </trkpt>
      <trkpt lat="44.36244" lon="7.44729">
        <ele>1005.68</ele>
        <time>2023-03-04T15:33:32Z</time>
      </trkpt>
      <trkpt lat="44.36253" lon="7.44728">
        <ele>999.91</ele>
        <time>2023-03-04T15:33:47Z</time>
      </trkpt>
      <trkpt lat="44.36261" lon="7.44737">
        <ele>995.58</ele>
        <time>2023-03-04T15:33:58Z</time>
      </trkpt>
      <trkpt lat="44.36269" lon="7.44744">
        <ele>996.06</ele>
        <time>2023-03-04T15:34:12Z</time>
      </trkpt>
      <trkpt lat="44.36277" lon="7.44746">
        <ele>994.62</ele>
        <time>2023-03-04T15:34:27Z</time>
      </trkpt>
      <trkpt lat="44.36289" lon="7.44748">
        <ele>988.37</ele>
        <time>2023-03-04T15:34:41Z</time>
      </trkpt>
      <trkpt lat="44.3629" lon="7.44749">
        <ele>988.37</ele>
        <time>2023-03-04T15:34:42Z</time>
      </trkpt>
      <trkpt lat="44.36306" lon="7.44749">
        <ele>982.12</ele>
        <time>2023-03-04T15:34:56Z</time>
      </trkpt>
      <trkpt lat="44.36315" lon="7.44753">
        <ele>977.8</ele>
        <time>2023-03-04T15:35:10Z</time>
      </trkpt>
      <trkpt lat="44.36327" lon="7.44756">
        <ele>978.28</ele>
        <time>2023-03-04T15:35:24Z</time>
      </trkpt>
      <trkpt lat="44.36336" lon="7.44765">
        <ele>979.24</ele>
        <time>2023-03-04T15:35:38Z</time>
      </trkpt>
      <trkpt lat="44.36346" lon="7.44766">
        <ele>973.95</ele>
        <time>2023-03-04T15:35:51Z</time>
      </trkpt>
      <trkpt lat="44.36358" lon="7.44777">
        <ele>971.07</ele>
        <time>2023-03-04T15:36:08Z</time>
      </trkpt>
      <trkpt lat="44.36374" lon="7.4479">
        <ele>966.26</ele>
        <time>2023-03-04T15:36:25Z</time>
      </trkpt>
      <trkpt lat="44.36381" lon="7.44794">
        <ele>962.42</ele>
        <time>2023-03-04T15:36:32Z</time>
      </trkpt>
      <trkpt lat="44.36383" lon="7.44796">
        <ele>961.94</ele>
        <time>2023-03-04T15:36:34Z</time>
      </trkpt>
      <trkpt lat="44.36385" lon="7.44797">
        <ele>961.94</ele>
        <time>2023-03-04T15:36:36Z</time>
      </trkpt>
      <trkpt lat="44.36396" lon="7.4481">
        <ele>959.05</ele>
        <time>2023-03-04T15:36:53Z</time>
      </trkpt>
      <trkpt lat="44.36403" lon="7.4482">
        <ele>959.05</ele>
        <time>2023-03-04T15:37:08Z</time>
      </trkpt>
      <trkpt lat="44.36414" lon="7.44831">
        <ele>954.73</ele>
        <time>2023-03-04T15:37:25Z</time>
      </trkpt>
      <trkpt lat="44.36426" lon="7.44844">
        <ele>950.4</ele>
        <time>2023-03-04T15:37:41Z</time>
      </trkpt>
      <trkpt lat="44.36441" lon="7.44854">
        <ele>949.92</ele>
        <time>2023-03-04T15:37:56Z</time>
      </trkpt>
      <trkpt lat="44.36449" lon="7.44867">
        <ele>949.92</ele>
        <time>2023-03-04T15:38:11Z</time>
      </trkpt>
      <trkpt lat="44.36455" lon="7.44879">
        <ele>948.48</ele>
        <time>2023-03-04T15:38:28Z</time>
      </trkpt>
      <trkpt lat="44.36462" lon="7.44884">
        <ele>948.48</ele>
        <time>2023-03-04T15:38:45Z</time>
      </trkpt>
      <trkpt lat="44.36486" lon="7.44906">
        <ele>941.27</ele>
        <time>2023-03-04T15:39:03Z</time>
      </trkpt>
      <trkpt lat="44.36501" lon="7.44924">
        <ele>938.86</ele>
        <time>2023-03-04T15:39:19Z</time>
      </trkpt>
      <trkpt lat="44.36508" lon="7.44939">
        <ele>937.9</ele>
        <time>2023-03-04T15:39:33Z</time>
      </trkpt>
      <trkpt lat="44.36521" lon="7.44952">
        <ele>933.1</ele>
        <time>2023-03-04T15:39:51Z</time>
      </trkpt>
      <trkpt lat="44.36528" lon="7.44962">
        <ele>931.17</ele>
        <time>2023-03-04T15:40:00Z</time>
      </trkpt>
      <trkpt lat="44.3654" lon="7.44978">
        <ele>930.69</ele>
        <time>2023-03-04T15:40:15Z</time>
      </trkpt>
      <trkpt lat="44.36549" lon="7.44991">
        <ele>931.65</ele>
        <time>2023-03-04T15:40:30Z</time>
      </trkpt>
      <trkpt lat="44.36564" lon="7.45002">
        <ele>930.21</ele>
        <time>2023-03-04T15:40:48Z</time>
      </trkpt>
      <trkpt lat="44.36571" lon="7.44997">
        <ele>927.81</ele>
        <time>2023-03-04T15:40:55Z</time>
      </trkpt>
      <trkpt lat="44.3658" lon="7.44989">
        <ele>926.37</ele>
        <time>2023-03-04T15:41:06Z</time>
      </trkpt>
      <trkpt lat="44.36594" lon="7.4498">
        <ele>929.73</ele>
        <time>2023-03-04T15:41:22Z</time>
      </trkpt>
      <trkpt lat="44.36604" lon="7.44965">
        <ele>930.21</ele>
        <time>2023-03-04T15:41:37Z</time>
      </trkpt>
      <trkpt lat="44.36609" lon="7.44946">
        <ele>932.14</ele>
        <time>2023-03-04T15:41:54Z</time>
      </trkpt>
      <trkpt lat="44.36611" lon="7.44943">
        <ele>932.14</ele>
        <time>2023-03-04T15:42:00Z</time>
      </trkpt>
      <trkpt lat="44.36619" lon="7.44934">
        <ele>926.85</ele>
        <time>2023-03-04T15:42:15Z</time>
      </trkpt>
      <trkpt lat="44.36625" lon="7.44922">
        <ele>923.96</ele>
        <time>2023-03-04T15:42:31Z</time>
      </trkpt>
      <trkpt lat="44.36635" lon="7.4491">
        <ele>921.08</ele>
        <time>2023-03-04T15:42:47Z</time>
      </trkpt>
      <trkpt lat="44.36643" lon="7.44904">
        <ele>915.79</ele>
        <time>2023-03-04T15:43:03Z</time>
      </trkpt>
      <trkpt lat="44.36654" lon="7.44899">
        <ele>914.83</ele>
        <time>2023-03-04T15:43:16Z</time>
      </trkpt>
      <trkpt lat="44.36665" lon="7.44894">
        <ele>913.39</ele>
        <time>2023-03-04T15:43:30Z</time>
      </trkpt>
      <trkpt lat="44.36676" lon="7.44887">
        <ele>910.03</ele>
        <time>2023-03-04T15:43:48Z</time>
      </trkpt>
      <trkpt lat="44.3669" lon="7.44881">
        <ele>906.18</ele>
        <time>2023-03-04T15:44:05Z</time>
      </trkpt>
      <trkpt lat="44.36699" lon="7.44881">
        <ele>902.33</ele>
        <time>2023-03-04T15:44:21Z</time>
      </trkpt>
      <trkpt lat="44.36706" lon="7.44882">
        <ele>899.93</ele>
        <time>2023-03-04T15:44:29Z</time>
      </trkpt>
      <trkpt lat="44.36724" lon="7.44895">
        <ele>891.76</ele>
        <time>2023-03-04T15:44:46Z</time>
      </trkpt>
      <trkpt lat="44.36731" lon="7.44898">
        <ele>888.4</ele>
        <time>2023-03-04T15:44:59Z</time>
      </trkpt>
      <trkpt lat="44.3674" lon="7.44903">
        <ele>882.63</ele>
        <time>2023-03-04T15:45:11Z</time>
      </trkpt>
      <trkpt lat="44.36747" lon="7.44906">
        <ele>876.86</ele>
        <time>2023-03-04T15:45:25Z</time>
      </trkpt>
      <trkpt lat="44.36755" lon="7.44911">
        <ele>874.46</ele>
        <time>2023-03-04T15:45:40Z</time>
      </trkpt>
      <trkpt lat="44.36768" lon="7.44908">
        <ele>873.5</ele>
        <time>2023-03-04T15:45:56Z</time>
      </trkpt>
      <trkpt lat="44.36777" lon="7.44899">
        <ele>870.13</ele>
        <time>2023-03-04T15:46:11Z</time>
      </trkpt>
      <trkpt lat="44.36788" lon="7.449">
        <ele>865.32</ele>
        <time>2023-03-04T15:46:28Z</time>
      </trkpt>
      <trkpt lat="44.36797" lon="7.44885">
        <ele>863.4</ele>
        <time>2023-03-04T15:46:45Z</time>
      </trkpt>
      <trkpt lat="44.36807" lon="7.44882">
        <ele>862.44</ele>
        <time>2023-03-04T15:47:02Z</time>
      </trkpt>
      <trkpt lat="44.36817" lon="7.44873">
        <ele>860.04</ele>
        <time>2023-03-04T15:47:17Z</time>
      </trkpt>
      <trkpt lat="44.36823" lon="7.4487">
        <ele>857.15</ele>
        <time>2023-03-04T15:47:29Z</time>
      </trkpt>
      <trkpt lat="44.36822" lon="7.4487">
        <ele>857.63</ele>
        <time>2023-03-04T15:47:45Z</time>
      </trkpt>
      <trkpt lat="44.36824" lon="7.4486">
        <ele>855.71</ele>
        <time>2023-03-04T15:47:58Z</time>
      </trkpt>
      <trkpt lat="44.36823" lon="7.44851">
        <ele>858.11</ele>
        <time>2023-03-04T15:48:28Z</time>
      </trkpt>
      <trkpt lat="44.36821" lon="7.44858">
        <ele>858.59</ele>
        <time>2023-03-04T15:48:53Z</time>
      </trkpt>
      <trkpt lat="44.36824" lon="7.44864">
        <ele>855.71</ele>
        <time>2023-03-04T15:49:05Z</time>
      </trkpt>
      <trkpt lat="44.36823" lon="7.44867">
        <ele>855.23</ele>
        <time>2023-03-04T15:49:23Z</time>
      </trkpt>
      <trkpt lat="44.36816" lon="7.44879">
        <ele>856.67</ele>
        <time>2023-03-04T15:49:39Z</time>
      </trkpt>
      <trkpt lat="44.36808" lon="7.44886">
        <ele>858.59</ele>
        <time>2023-03-04T15:50:00Z</time>
      </trkpt>
      <trkpt lat="44.36807" lon="7.44897">
        <ele>858.59</ele>
        <time>2023-03-04T15:50:15Z</time>
      </trkpt>
      <trkpt lat="44.36813" lon="7.44908">
        <ele>857.63</ele>
        <time>2023-03-04T15:50:22Z</time>
      </trkpt>
      <trkpt lat="44.36807" lon="7.44925">
        <ele>856.67</ele>
        <time>2023-03-04T15:50:35Z</time>
      </trkpt>
      <trkpt lat="44.36806" lon="7.44936">
        <ele>856.67</ele>
        <time>2023-03-04T15:50:42Z</time>
      </trkpt>
      <trkpt lat="44.36808" lon="7.44959">
        <ele>852.35</ele>
        <time>2023-03-04T15:50:58Z</time>
      </trkpt>
      <trkpt lat="44.36808" lon="7.44966">
        <ele>850.9</ele>
        <time>2023-03-04T15:51:08Z</time>
      </trkpt>
      <trkpt lat="44.36797" lon="7.44981">
        <ele>847.54</ele>
        <time>2023-03-04T15:51:24Z</time>
      </trkpt>
      <trkpt lat="44.36779" lon="7.45">
        <ele>845.62</ele>
        <time>2023-03-04T15:51:39Z</time>
      </trkpt>
      <trkpt lat="44.36778" lon="7.45012">
        <ele>844.66</ele>
        <time>2023-03-04T15:51:47Z</time>
      </trkpt>
      <trkpt lat="44.36778" lon="7.45016">
        <ele>844.18</ele>
        <time>2023-03-04T15:51:49Z</time>
      </trkpt>
      <trkpt lat="44.36778" lon="7.45035">
        <ele>839.37</ele>
        <time>2023-03-04T15:52:00Z</time>
      </trkpt>
      <trkpt lat="44.36775" lon="7.45041">
        <ele>838.89</ele>
        <time>2023-03-04T15:52:05Z</time>
      </trkpt>
      <trkpt lat="44.36757" lon="7.45062">
        <ele>837.45</ele>
        <time>2023-03-04T15:52:23Z</time>
      </trkpt>
      <trkpt lat="44.3674" lon="7.45077">
        <ele>835.04</ele>
        <time>2023-03-04T15:52:41Z</time>
      </trkpt>
      <trkpt lat="44.36732" lon="7.45087">
        <ele>834.08</ele>
        <time>2023-03-04T15:52:53Z</time>
      </trkpt>
      <trkpt lat="44.36728" lon="7.45094">
        <ele>832.64</ele>
        <time>2023-03-04T15:53:00Z</time>
      </trkpt>
      <trkpt lat="44.36722" lon="7.451">
        <ele>833.12</ele>
        <time>2023-03-04T15:53:06Z</time>
      </trkpt>
      <trkpt lat="44.36706" lon="7.45109">
        <ele>829.27</ele>
        <time>2023-03-04T15:53:21Z</time>
      </trkpt>
      <trkpt lat="44.367" lon="7.45111">
        <ele>829.27</ele>
        <time>2023-03-04T15:53:26Z</time>
      </trkpt>
      <trkpt lat="44.36682" lon="7.45123">
        <ele>829.76</ele>
        <time>2023-03-04T15:53:41Z</time>
      </trkpt>
      <trkpt lat="44.36675" lon="7.45132">
        <ele>832.64</ele>
        <time>2023-03-04T15:53:54Z</time>
      </trkpt>
      <trkpt lat="44.36661" lon="7.45143">
        <ele>832.16</ele>
        <time>2023-03-04T15:54:08Z</time>
      </trkpt>
      <trkpt lat="44.36661" lon="7.45152">
        <ele>832.16</ele>
        <time>2023-03-04T15:54:15Z</time>
      </trkpt>
      <trkpt lat="44.36671" lon="7.45162">
        <ele>830.24</ele>
        <time>2023-03-04T15:54:24Z</time>
      </trkpt>
      <trkpt lat="44.36677" lon="7.45164">
        <ele>830.72</ele>
        <time>2023-03-04T15:54:31Z</time>
      </trkpt>
      <trkpt lat="44.36692" lon="7.4517">
        <ele>825.43</ele>
        <time>2023-03-04T15:54:47Z</time>
      </trkpt>
      <trkpt lat="44.3669" lon="7.45176">
        <ele>819.18</ele>
        <time>2023-03-04T15:55:02Z</time>
      </trkpt>
      <trkpt lat="44.36688" lon="7.45173">
        <ele>816.3</ele>
        <time>2023-03-04T15:55:17Z</time>
      </trkpt>
      <trkpt lat="44.3667" lon="7.45172">
        <ele>815.82</ele>
        <time>2023-03-04T15:55:33Z</time>
      </trkpt>
      <trkpt lat="44.36659" lon="7.45173">
        <ele>816.78</ele>
        <time>2023-03-04T15:55:42Z</time>
      </trkpt>
      <trkpt lat="44.36641" lon="7.45183">
        <ele>820.14</ele>
        <time>2023-03-04T15:55:59Z</time>
      </trkpt>
      <trkpt lat="44.36636" lon="7.45192">
        <ele>824.47</ele>
        <time>2023-03-04T15:56:12Z</time>
      </trkpt>
      <trkpt lat="44.36629" lon="7.45204">
        <ele>827.35</ele>
        <time>2023-03-04T15:56:24Z</time>
      </trkpt>
      <trkpt lat="44.36617" lon="7.4522">
        <ele>827.35</ele>
        <time>2023-03-04T15:56:38Z</time>
      </trkpt>
      <trkpt lat="44.36605" lon="7.45241">
        <ele>826.87</ele>
        <time>2023-03-04T15:56:56Z</time>
      </trkpt>
      <trkpt lat="44.36595" lon="7.45266">
        <ele>826.39</ele>
        <time>2023-03-04T15:57:13Z</time>
      </trkpt>
      <trkpt lat="44.36595" lon="7.45275">
        <ele>826.39</ele>
        <time>2023-03-04T15:57:19Z</time>
      </trkpt>
      <trkpt lat="44.36593" lon="7.45294">
        <ele>823.51</ele>
        <time>2023-03-04T15:57:33Z</time>
      </trkpt>
      <trkpt lat="44.36574" lon="7.4531">
        <ele>806.68</ele>
        <time>2023-03-04T15:57:45Z</time>
      </trkpt>
      <trkpt lat="44.36563" lon="7.45324">
        <ele>794.67</ele>
        <time>2023-03-04T15:58:00Z</time>
      </trkpt>
      <trkpt lat="44.36552" lon="7.45333">
        <ele>791.3</ele>
        <time>2023-03-04T15:58:16Z</time>
      </trkpt>
      <trkpt lat="44.36544" lon="7.45341">
        <ele>791.78</ele>
        <time>2023-03-04T15:58:27Z</time>
      </trkpt>
      <trkpt lat="44.36539" lon="7.45342">
        <ele>786.98</ele>
        <time>2023-03-04T15:58:35Z</time>
      </trkpt>
      <trkpt lat="44.36518" lon="7.45326">
        <ele>786.5</ele>
        <time>2023-03-04T15:58:55Z</time>
      </trkpt>
      <trkpt lat="44.36498" lon="7.4531">
        <ele>784.57</ele>
        <time>2023-03-04T15:59:15Z</time>
      </trkpt>
      <trkpt lat="44.36488" lon="7.45302">
        <ele>786.98</ele>
        <time>2023-03-04T15:59:29Z</time>
      </trkpt>
      <trkpt lat="44.36478" lon="7.45286">
        <ele>791.78</ele>
        <time>2023-03-04T15:59:43Z</time>
      </trkpt>
      <trkpt lat="44.36468" lon="7.45273">
        <ele>791.78</ele>
        <time>2023-03-04T15:59:54Z</time>
      </trkpt>
      <trkpt lat="44.36454" lon="7.45257">
        <ele>793.71</ele>
        <time>2023-03-04T16:00:12Z</time>
      </trkpt>
      <trkpt lat="44.36441" lon="7.45248">
        <ele>796.59</ele>
        <time>2023-03-04T16:00:28Z</time>
      </trkpt>
      <trkpt lat="44.36428" lon="7.45243">
        <ele>800.44</ele>
        <time>2023-03-04T16:00:43Z</time>
      </trkpt>
      <trkpt lat="44.36409" lon="7.45231">
        <ele>806.68</ele>
        <time>2023-03-04T16:01:02Z</time>
      </trkpt>
      <trkpt lat="44.36387" lon="7.45225">
        <ele>808.13</ele>
        <time>2023-03-04T16:01:19Z</time>
      </trkpt>
      <trkpt lat="44.36366" lon="7.45223">
        <ele>811.49</ele>
        <time>2023-03-04T16:01:38Z</time>
      </trkpt>
      <trkpt lat="44.36349" lon="7.45218">
        <ele>812.93</ele>
        <time>2023-03-04T16:01:54Z</time>
      </trkpt>
      <trkpt lat="44.36332" lon="7.452">
        <ele>808.61</ele>
        <time>2023-03-04T16:02:08Z</time>
      </trkpt>
      <trkpt lat="44.36313" lon="7.45179">
        <ele>805.24</ele>
        <time>2023-03-04T16:02:26Z</time>
      </trkpt>
      <trkpt lat="44.36303" lon="7.45168">
        <ele>801.88</ele>
        <time>2023-03-04T16:02:43Z</time>
      </trkpt>
      <trkpt lat="44.3629" lon="7.45164">
        <ele>799.47</ele>
        <time>2023-03-04T16:03:00Z</time>
      </trkpt>
      <trkpt lat="44.3627" lon="7.45172">
        <ele>799.47</ele>
        <time>2023-03-04T16:03:17Z</time>
      </trkpt>
      <trkpt lat="44.36256" lon="7.45182">
        <ele>800.92</ele>
        <time>2023-03-04T16:03:34Z</time>
      </trkpt>
      <trkpt lat="44.36241" lon="7.4518">
        <ele>801.4</ele>
        <time>2023-03-04T16:03:51Z</time>
      </trkpt>
      <trkpt lat="44.36227" lon="7.45181">
        <ele>805.72</ele>
        <time>2023-03-04T16:04:08Z</time>
      </trkpt>
      <trkpt lat="44.36225" lon="7.45182">
        <ele>806.68</ele>
        <time>2023-03-04T16:04:12Z</time>
      </trkpt>
      <trkpt lat="44.36213" lon="7.45187">
        <ele>809.09</ele>
        <time>2023-03-04T16:04:19Z</time>
      </trkpt>
      <trkpt lat="44.36202" lon="7.45207">
        <ele>808.61</ele>
        <time>2023-03-04T16:04:33Z</time>
      </trkpt>
      <trkpt lat="44.362" lon="7.45211">
        <ele>805.72</ele>
        <time>2023-03-04T16:04:43Z</time>
      </trkpt>
      <trkpt lat="44.36199" lon="7.45216">
        <ele>806.68</ele>
        <time>2023-03-04T16:04:47Z</time>
      </trkpt>
      <trkpt lat="44.36194" lon="7.45232">
        <ele>809.09</ele>
        <time>2023-03-04T16:05:01Z</time>
      </trkpt>
      <trkpt lat="44.36188" lon="7.45238">
        <ele>811.49</ele>
        <time>2023-03-04T16:05:10Z</time>
      </trkpt>
      <trkpt lat="44.36185" lon="7.45241">
        <ele>812.93</ele>
        <time>2023-03-04T16:05:13Z</time>
      </trkpt>
      <trkpt lat="44.36176" lon="7.45258">
        <ele>808.13</ele>
        <time>2023-03-04T16:05:27Z</time>
      </trkpt>
      <trkpt lat="44.3617" lon="7.4527">
        <ele>802.84</ele>
        <time>2023-03-04T16:05:43Z</time>
      </trkpt>
      <trkpt lat="44.36173" lon="7.45291">
        <ele>800.92</ele>
        <time>2023-03-04T16:05:57Z</time>
      </trkpt>
      <trkpt lat="44.36174" lon="7.45312">
        <ele>797.55</ele>
        <time>2023-03-04T16:06:13Z</time>
      </trkpt>
      <trkpt lat="44.36178" lon="7.45332">
        <ele>799.47</ele>
        <time>2023-03-04T16:06:30Z</time>
      </trkpt>
      <trkpt lat="44.3618" lon="7.45346">
        <ele>802.84</ele>
        <time>2023-03-04T16:06:44Z</time>
      </trkpt>
      <trkpt lat="44.36181" lon="7.45357">
        <ele>805.24</ele>
        <time>2023-03-04T16:06:51Z</time>
      </trkpt>
      <trkpt lat="44.36175" lon="7.45383">
        <ele>805.24</ele>
        <time>2023-03-04T16:07:06Z</time>
      </trkpt>
      <trkpt lat="44.3617" lon="7.45404">
        <ele>806.2</ele>
        <time>2023-03-04T16:07:22Z</time>
      </trkpt>
      <trkpt lat="44.36171" lon="7.45417">
        <ele>811.97</ele>
        <time>2023-03-04T16:07:33Z</time>
      </trkpt>
      <trkpt lat="44.36184" lon="7.45436">
        <ele>818.7</ele>
        <time>2023-03-04T16:07:47Z</time>
      </trkpt>
      <trkpt lat="44.36188" lon="7.45452">
        <ele>819.18</ele>
        <time>2023-03-04T16:08:02Z</time>
      </trkpt>
      <trkpt lat="44.36188" lon="7.45454">
        <ele>819.18</ele>
        <time>2023-03-04T16:08:03Z</time>
      </trkpt>
      <trkpt lat="44.36187" lon="7.45472">
        <ele>818.22</ele>
        <time>2023-03-04T16:08:13Z</time>
      </trkpt>
      <trkpt lat="44.36183" lon="7.45499">
        <ele>817.26</ele>
        <time>2023-03-04T16:08:30Z</time>
      </trkpt>
      <trkpt lat="44.36192" lon="7.45509">
        <ele>820.14</ele>
        <time>2023-03-04T16:08:39Z</time>
      </trkpt>
      <trkpt lat="44.36226" lon="7.45542">
        <ele>811.97</ele>
        <time>2023-03-04T16:08:59Z</time>
      </trkpt>
      <trkpt lat="44.36246" lon="7.45555">
        <ele>801.4</ele>
        <time>2023-03-04T16:09:16Z</time>
      </trkpt>
      <trkpt lat="44.36266" lon="7.45572">
        <ele>795.15</ele>
        <time>2023-03-04T16:09:34Z</time>
      </trkpt>
      <trkpt lat="44.36267" lon="7.45578">
        <ele>793.71</ele>
        <time>2023-03-04T16:09:40Z</time>
      </trkpt>
      <trkpt lat="44.36279" lon="7.45599">
        <ele>792.26</ele>
        <time>2023-03-04T16:09:58Z</time>
      </trkpt>
      <trkpt lat="44.36282" lon="7.45602">
        <ele>792.26</ele>
        <time>2023-03-04T16:10:01Z</time>
      </trkpt>
      <trkpt lat="44.36306" lon="7.45617">
        <ele>793.71</ele>
        <time>2023-03-04T16:10:19Z</time>
      </trkpt>
      <trkpt lat="44.36316" lon="7.45625">
        <ele>787.94</ele>
        <time>2023-03-04T16:10:31Z</time>
      </trkpt>
      <trkpt lat="44.36341" lon="7.45642">
        <ele>782.17</ele>
        <time>2023-03-04T16:10:51Z</time>
      </trkpt>
      <trkpt lat="44.3635" lon="7.4566">
        <ele>781.69</ele>
        <time>2023-03-04T16:11:08Z</time>
      </trkpt>
      <trkpt lat="44.3635" lon="7.45679">
        <ele>781.69</ele>
        <time>2023-03-04T16:11:25Z</time>
      </trkpt>
      <trkpt lat="44.36359" lon="7.45699">
        <ele>782.65</ele>
        <time>2023-03-04T16:11:40Z</time>
      </trkpt>
      <trkpt lat="44.36371" lon="7.45718">
        <ele>784.57</ele>
        <time>2023-03-04T16:11:58Z</time>
      </trkpt>
      <trkpt lat="44.3638" lon="7.45733">
        <ele>781.69</ele>
        <time>2023-03-04T16:12:10Z</time>
      </trkpt>
      <trkpt lat="44.36404" lon="7.45763">
        <ele>766.79</ele>
        <time>2023-03-04T16:12:27Z</time>
      </trkpt>
      <trkpt lat="44.36406" lon="7.45775">
        <ele>762.94</ele>
        <time>2023-03-04T16:12:35Z</time>
      </trkpt>
      <trkpt lat="44.36409" lon="7.45801">
        <ele>761.02</ele>
        <time>2023-03-04T16:12:54Z</time>
      </trkpt>
      <trkpt lat="44.36406" lon="7.45818">
        <ele>760.06</ele>
        <time>2023-03-04T16:13:09Z</time>
      </trkpt>
      <trkpt lat="44.36396" lon="7.45838">
        <ele>757.66</ele>
        <time>2023-03-04T16:13:25Z</time>
      </trkpt>
      <trkpt lat="44.36389" lon="7.45863">
        <ele>756.69</ele>
        <time>2023-03-04T16:13:42Z</time>
      </trkpt>
      <trkpt lat="44.36388" lon="7.45893">
        <ele>752.85</ele>
        <time>2023-03-04T16:14:00Z</time>
      </trkpt>
      <trkpt lat="44.36391" lon="7.45914">
        <ele>751.41</ele>
        <time>2023-03-04T16:14:14Z</time>
      </trkpt>
      <trkpt lat="44.36398" lon="7.45937">
        <ele>750.93</ele>
        <time>2023-03-04T16:14:30Z</time>
      </trkpt>
      <trkpt lat="44.36412" lon="7.45949">
        <ele>749</ele>
        <time>2023-03-04T16:14:39Z</time>
      </trkpt>
      <trkpt lat="44.3646" lon="7.45991">
        <ele>748.04</ele>
        <time>2023-03-04T16:14:59Z</time>
      </trkpt>
      <trkpt lat="44.36482" lon="7.46001">
        <ele>745.64</ele>
        <time>2023-03-04T16:15:17Z</time>
      </trkpt>
      <trkpt lat="44.36506" lon="7.46012">
        <ele>744.2</ele>
        <time>2023-03-04T16:15:34Z</time>
      </trkpt>
      <trkpt lat="44.3652" lon="7.4602">
        <ele>745.16</ele>
        <time>2023-03-04T16:15:48Z</time>
      </trkpt>
      <trkpt lat="44.36522" lon="7.46037">
        <ele>744.68</ele>
        <time>2023-03-04T16:16:06Z</time>
      </trkpt>
      <trkpt lat="44.36518" lon="7.46051">
        <ele>742.76</ele>
        <time>2023-03-04T16:16:22Z</time>
      </trkpt>
      <trkpt lat="44.36516" lon="7.46064">
        <ele>740.35</ele>
        <time>2023-03-04T16:16:32Z</time>
      </trkpt>
      <trkpt lat="44.36517" lon="7.46091">
        <ele>737.47</ele>
        <time>2023-03-04T16:16:51Z</time>
      </trkpt>
      <trkpt lat="44.36532" lon="7.46115">
        <ele>738.43</ele>
        <time>2023-03-04T16:17:06Z</time>
      </trkpt>
      <trkpt lat="44.36554" lon="7.46132">
        <ele>735.55</ele>
        <time>2023-03-04T16:17:20Z</time>
      </trkpt>
      <trkpt lat="44.36573" lon="7.46153">
        <ele>731.7</ele>
        <time>2023-03-04T16:17:39Z</time>
      </trkpt>
      <trkpt lat="44.36591" lon="7.46175">
        <ele>729.78</ele>
        <time>2023-03-04T16:17:57Z</time>
      </trkpt>
      <trkpt lat="44.366" lon="7.46196">
        <ele>727.86</ele>
        <time>2023-03-04T16:18:15Z</time>
      </trkpt>
      <trkpt lat="44.36605" lon="7.46217">
        <ele>722.57</ele>
        <time>2023-03-04T16:18:31Z</time>
      </trkpt>
      <trkpt lat="44.36608" lon="7.46233">
        <ele>718.72</ele>
        <time>2023-03-04T16:18:42Z</time>
      </trkpt>
      <trkpt lat="44.36616" lon="7.46261">
        <ele>717.28</ele>
        <time>2023-03-04T16:19:01Z</time>
      </trkpt>
      <trkpt lat="44.3663" lon="7.46285">
        <ele>718.72</ele>
        <time>2023-03-04T16:19:18Z</time>
      </trkpt>
      <trkpt lat="44.36641" lon="7.46312">
        <ele>715.36</ele>
        <time>2023-03-04T16:19:34Z</time>
      </trkpt>
      <trkpt lat="44.36658" lon="7.46339">
        <ele>708.15</ele>
        <time>2023-03-04T16:19:51Z</time>
      </trkpt>
      <trkpt lat="44.36672" lon="7.46363">
        <ele>699.5</ele>
        <time>2023-03-04T16:20:04Z</time>
      </trkpt>
      <trkpt lat="44.36683" lon="7.4639">
        <ele>691.33</ele>
        <time>2023-03-04T16:20:25Z</time>
      </trkpt>
      <trkpt lat="44.36687" lon="7.46397">
        <ele>692.29</ele>
        <time>2023-03-04T16:20:31Z</time>
      </trkpt>
      <trkpt lat="44.36706" lon="7.46426">
        <ele>694.21</ele>
        <time>2023-03-04T16:20:49Z</time>
      </trkpt>
      <trkpt lat="44.36709" lon="7.46428">
        <ele>694.21</ele>
        <time>2023-03-04T16:20:51Z</time>
      </trkpt>
      <trkpt lat="44.3671" lon="7.46446">
        <ele>694.21</ele>
        <time>2023-03-04T16:21:03Z</time>
      </trkpt>
      <trkpt lat="44.36709" lon="7.46449">
        <ele>694.69</ele>
        <time>2023-03-04T16:21:05Z</time>
      </trkpt>
      <trkpt lat="44.3669" lon="7.46456">
        <ele>703.34</ele>
        <time>2023-03-04T16:21:23Z</time>
      </trkpt>
      <trkpt lat="44.36672" lon="7.46473">
        <ele>704.3</ele>
        <time>2023-03-04T16:21:43Z</time>
      </trkpt>
      <trkpt lat="44.36653" lon="7.46483">
        <ele>708.63</ele>
        <time>2023-03-04T16:22:01Z</time>
      </trkpt>
      <trkpt lat="44.36638" lon="7.46491">
        <ele>709.11</ele>
        <time>2023-03-04T16:22:16Z</time>
      </trkpt>
      <trkpt lat="44.36613" lon="7.46506">
        <ele>707.19</ele>
        <time>2023-03-04T16:22:38Z</time>
      </trkpt>
      <trkpt lat="44.36592" lon="7.46518">
        <ele>705.75</ele>
        <time>2023-03-04T16:22:55Z</time>
      </trkpt>
      <trkpt lat="44.36564" lon="7.46532">
        <ele>701.42</ele>
        <time>2023-03-04T16:23:14Z</time>
      </trkpt>
      <trkpt lat="44.36557" lon="7.46538">
        <ele>701.9</ele>
        <time>2023-03-04T16:23:20Z</time>
      </trkpt>
      <trkpt lat="44.36538" lon="7.46552">
        <ele>705.26</ele>
        <time>2023-03-04T16:23:40Z</time>
      </trkpt>
      <trkpt lat="44.36528" lon="7.46557">
        <ele>705.75</ele>
        <time>2023-03-04T16:23:49Z</time>
      </trkpt>
      <trkpt lat="44.36514" lon="7.46573">
        <ele>706.23</ele>
        <time>2023-03-04T16:24:03Z</time>
      </trkpt>
      <trkpt lat="44.36508" lon="7.466">
        <ele>710.55</ele>
        <time>2023-03-04T16:24:19Z</time>
      </trkpt>
      <trkpt lat="44.36504" lon="7.46614">
        <ele>713.92</ele>
        <time>2023-03-04T16:24:30Z</time>
      </trkpt>
      <trkpt lat="44.36489" lon="7.46641">
        <ele>717.76</ele>
        <time>2023-03-04T16:24:48Z</time>
      </trkpt>
      <trkpt lat="44.3648" lon="7.46656">
        <ele>724.49</ele>
        <time>2023-03-04T16:25:01Z</time>
      </trkpt>
      <trkpt lat="44.36464" lon="7.46671">
        <ele>730.74</ele>
        <time>2023-03-04T16:25:16Z</time>
      </trkpt>
      <trkpt lat="44.36459" lon="7.46675">
        <ele>731.7</ele>
        <time>2023-03-04T16:25:20Z</time>
      </trkpt>
      <trkpt lat="44.3644" lon="7.46692">
        <ele>735.07</ele>
        <time>2023-03-04T16:25:36Z</time>
      </trkpt>
      <trkpt lat="44.36424" lon="7.46711">
        <ele>728.82</ele>
        <time>2023-03-04T16:25:54Z</time>
      </trkpt>
      <trkpt lat="44.36408" lon="7.46734">
        <ele>719.68</ele>
        <time>2023-03-04T16:26:12Z</time>
      </trkpt>
      <trkpt lat="44.36386" lon="7.46758">
        <ele>719.2</ele>
        <time>2023-03-04T16:26:31Z</time>
      </trkpt>
      <trkpt lat="44.36369" lon="7.46787">
        <ele>721.13</ele>
        <time>2023-03-04T16:26:52Z</time>
      </trkpt>
      <trkpt lat="44.36366" lon="7.46806">
        <ele>721.61</ele>
        <time>2023-03-04T16:27:07Z</time>
      </trkpt>
      <trkpt lat="44.36367" lon="7.46817">
        <ele>718.24</ele>
        <time>2023-03-04T16:27:25Z</time>
      </trkpt>
      <trkpt lat="44.36356" lon="7.4683">
        <ele>709.59</ele>
        <time>2023-03-04T16:27:38Z</time>
      </trkpt>
      <trkpt lat="44.36341" lon="7.46842">
        <ele>704.78</ele>
        <time>2023-03-04T16:27:56Z</time>
      </trkpt>
      <trkpt lat="44.3632" lon="7.46852">
        <ele>699.5</ele>
        <time>2023-03-04T16:28:16Z</time>
      </trkpt>
      <trkpt lat="44.36297" lon="7.46866">
        <ele>696.13</ele>
        <time>2023-03-04T16:28:36Z</time>
      </trkpt>
      <trkpt lat="44.36277" lon="7.46884">
        <ele>689.88</ele>
        <time>2023-03-04T16:28:55Z</time>
      </trkpt>
      <trkpt lat="44.36252" lon="7.46896">
        <ele>686.52</ele>
        <time>2023-03-04T16:29:16Z</time>
      </trkpt>
      <trkpt lat="44.36223" lon="7.46904">
        <ele>671.62</ele>
        <time>2023-03-04T16:29:36Z</time>
      </trkpt>
      <trkpt lat="44.362" lon="7.4691">
        <ele>663.45</ele>
        <time>2023-03-04T16:29:58Z</time>
      </trkpt>
      <trkpt lat="44.36173" lon="7.46915">
        <ele>660.08</ele>
        <time>2023-03-04T16:30:16Z</time>
      </trkpt>
      <trkpt lat="44.36151" lon="7.46915">
        <ele>654.8</ele>
        <time>2023-03-04T16:30:35Z</time>
      </trkpt>
      <trkpt lat="44.36126" lon="7.46912">
        <ele>650.47</ele>
        <time>2023-03-04T16:30:56Z</time>
      </trkpt>
      <trkpt lat="44.36101" lon="7.46928">
        <ele>649.51</ele>
        <time>2023-03-04T16:31:14Z</time>
      </trkpt>
      <trkpt lat="44.36108" lon="7.46943">
        <ele>645.66</ele>
        <time>2023-03-04T16:31:26Z</time>
      </trkpt>
      <trkpt lat="44.3611" lon="7.46943">
        <ele>645.66</ele>
        <time>2023-03-04T16:31:28Z</time>
      </trkpt>
      <trkpt lat="44.36121" lon="7.46944">
        <ele>641.82</ele>
        <time>2023-03-04T16:31:45Z</time>
      </trkpt>
      <trkpt lat="44.36124" lon="7.46944">
        <ele>641.82</ele>
        <time>2023-03-04T16:31:59Z</time>
      </trkpt>
      <trkpt lat="44.36124" lon="7.46945">
        <ele>642.3</ele>
        <time>2023-03-04T16:32:01Z</time>
      </trkpt>
      <trkpt lat="44.36118" lon="7.46961">
        <ele>645.18</ele>
        <time>2023-03-04T16:32:13Z</time>
      </trkpt>
      <trkpt lat="44.3612" lon="7.46971">
        <ele>646.14</ele>
        <time>2023-03-04T16:32:16Z</time>
      </trkpt>
      <trkpt lat="44.36118" lon="7.4698">
        <ele>647.1</ele>
        <time>2023-03-04T16:32:21Z</time>
      </trkpt>
      <trkpt lat="44.36122" lon="7.47011">
        <ele>647.1</ele>
        <time>2023-03-04T16:32:37Z</time>
      </trkpt>
      <trkpt lat="44.36121" lon="7.47016">
        <ele>647.59</ele>
        <time>2023-03-04T16:32:41Z</time>
      </trkpt>
      <trkpt lat="44.36109" lon="7.47049">
        <ele>647.1</ele>
        <time>2023-03-04T16:33:02Z</time>
      </trkpt>
      <trkpt lat="44.36109" lon="7.47055">
        <ele>648.07</ele>
        <time>2023-03-04T16:33:05Z</time>
      </trkpt>
      <trkpt lat="44.3613" lon="7.47086">
        <ele>650.95</ele>
        <time>2023-03-04T16:33:23Z</time>
      </trkpt>
      <trkpt lat="44.36141" lon="7.47118">
        <ele>645.18</ele>
        <time>2023-03-04T16:33:45Z</time>
      </trkpt>
      <trkpt lat="44.36148" lon="7.47145">
        <ele>649.03</ele>
        <time>2023-03-04T16:34:03Z</time>
      </trkpt>
      <trkpt lat="44.36154" lon="7.47177">
        <ele>648.55</ele>
        <time>2023-03-04T16:34:21Z</time>
      </trkpt>
      <trkpt lat="44.36163" lon="7.47212">
        <ele>646.62</ele>
        <time>2023-03-04T16:34:40Z</time>
      </trkpt>
      <trkpt lat="44.36169" lon="7.47247">
        <ele>646.14</ele>
        <time>2023-03-04T16:35:00Z</time>
      </trkpt>
      <trkpt lat="44.3619" lon="7.47275">
        <ele>643.74</ele>
        <time>2023-03-04T16:35:20Z</time>
      </trkpt>
      <trkpt lat="44.3622" lon="7.47299">
        <ele>638.93</ele>
        <time>2023-03-04T16:35:44Z</time>
      </trkpt>
      <trkpt lat="44.36238" lon="7.47315">
        <ele>637.97</ele>
        <time>2023-03-04T16:36:00Z</time>
      </trkpt>
      <trkpt lat="44.36241" lon="7.47318">
        <ele>637.49</ele>
        <time>2023-03-04T16:36:02Z</time>
      </trkpt>
    </trkseg>
  </trk>
</gpx>